Accueil
METAR-TAF:

METAR-TAF

Aéroports :

Okayama, Japon

latitude: 34-45N, longitude: 133-51E, altitude: 241 m

Observation

Le bulletin a été fait il y a 1 heure et 7 minutes, à 04:00 UTC
Vent 4 kt de sud/sud-est, variant entre est et sud-ouest
Température 14°C
Humidité 44%
Pression 1020 hPa
Visibilité 10 km ou plus
Quelques nuages à une hauteur de 3500 ft
Nuages épars à une hauteur de 11000 ft
Nuages fragmentés

METAR: RJOB 030400Z 15004KT 090V230 9999 FEW035 SCT110 BKN/// 14/02 Q1020

Heure: 14:07 (05:07 UTC)

Prévision

Le bulletin a été fait il y a 6 heures et 2 minutes, à 23:05 UTC
Prévision valable du 03 à 00 UTC au 04 à 06 UTC
Vent 4 kt de sud-est
Visibilité 10 km ou plus
Quelques nuages à une hauteur de 3500 ft
Evoluant progressivement
du 03 à 01 UTC au 03 à 03 UTC
Vent 6 kt de sud/sud-ouest

TAF: RJOB 022305Z 0300/0406 13004KT 9999 FEW035 BECMG 0301/0303 20006KT

Observations et prévisions météorologiques de plus de 4000 aéroports (messages METAR et TAF).

Les stations disponibles sont représentées par des disques jaunes et rouges sur la carte.

Passer la souris dessus pour voir le nom de la station.

Cliquer dessus pour voir les observations et prévisions météorologiques.

Pour changer de carte: cliquez sur les boutons verts avec une croix noire pour zoomer, sur le bouton vert avec un tiret pour effectuer un zoom arrière, ou sur les flèches vertes pour les cartes adjacentes.


METAR-TAF: